createdAt,value
2019-01-11T00:01:23.448Z,16.83
2019-01-11T00:03:54.697Z,16.67
2019-01-11T00:06:25.983Z,13.13
2019-01-11T00:08:57.323Z,15.70
2019-01-11T00:11:28.522Z,16.47
2019-01-11T00:13:59.953Z,15.93
2019-01-11T00:16:31.335Z,15.13
2019-01-11T00:19:07.051Z,16.67
2019-01-11T00:21:35.650Z,15.57
2019-01-11T00:24:07.152Z,13.87
2019-01-11T00:26:38.414Z,14.93
2019-01-11T00:29:09.785Z,15.63
2019-01-11T00:31:41.067Z,14.20
2019-01-11T00:34:12.443Z,14.27
2019-01-11T00:36:43.733Z,16.27
2019-01-11T00:39:14.924Z,13.93
2019-01-11T00:41:46.082Z,17.47
2019-01-11T00:44:17.328Z,17.90
2019-01-11T00:46:48.520Z,15.63
2019-01-11T00:49:20.274Z,15.10
2019-01-11T00:51:51.521Z,16.17
2019-01-11T00:54:22.748Z,16.10
2019-01-11T00:56:54.045Z,17.70
2019-01-11T00:59:25.412Z,19.20
2019-01-11T01:01:56.692Z,17.30
2019-01-11T01:04:27.982Z,18.70
2019-01-11T01:06:59.358Z,17.73
2019-01-11T01:09:30.621Z,17.70
2019-01-11T01:12:01.851Z,18.47
2019-01-11T01:14:33.160Z,16.07
2019-01-11T01:17:04.801Z,15.03
2019-01-11T01:19:36.247Z,16.73
2019-01-11T01:22:07.626Z,18.57
2019-01-11T01:24:38.947Z,18.63
2019-01-11T01:27:10.204Z,18.53
2019-01-11T01:29:41.380Z,18.83
2019-01-11T01:32:12.617Z,16.03
2019-01-11T01:34:44.845Z,16.90
2019-01-11T01:37:16.210Z,16.83
2019-01-11T01:39:47.484Z,17.60
2019-01-11T01:42:18.748Z,19.13
2019-01-11T01:44:50.032Z,17.77
2019-01-11T01:47:21.427Z,17.77
2019-01-11T01:49:52.692Z,16.73
2019-01-11T01:52:24.022Z,19.30
2019-01-11T01:54:55.235Z,18.47
2019-01-11T01:57:26.445Z,18.60
2019-01-11T01:59:57.618Z,18.13
2019-01-11T02:02:29.142Z,18.27
2019-01-11T02:05:00.336Z,18.07
2019-01-11T02:07:33.047Z,18.97
2019-01-11T02:10:05.436Z,19.40
2019-01-11T02:12:36.642Z,18.93
2019-01-11T02:15:09.982Z,19.87
2019-01-11T02:17:41.571Z,19.77
2019-01-11T02:20:18.435Z,19.13
2019-01-11T02:22:49.815Z,19.93
2019-01-11T02:25:21.225Z,20.47
2019-01-11T02:27:52.526Z,19.73
2019-01-11T02:30:24.500Z,19.77
2019-01-11T02:32:55.906Z,20.37
2019-01-11T02:35:28.154Z,19.27
2019-01-11T02:37:59.550Z,21.57
2019-01-11T02:40:30.837Z,20.17
2019-01-11T02:43:02.453Z,20.17
2019-01-11T02:45:34.799Z,20.23
2019-01-11T02:48:06.106Z,20.97
2019-01-11T02:50:37.340Z,20.40
2019-01-11T02:53:08.697Z,19.20
2019-01-11T02:55:39.883Z,19.20
2019-01-11T02:58:11.131Z,19.27
2019-01-11T03:00:43.809Z,19.73
2019-01-11T03:03:15.046Z,18.70
2019-01-11T03:05:46.309Z,16.60
2019-01-11T03:08:17.711Z,17.07
2019-01-11T03:10:51.783Z,16.10
2019-01-11T03:13:22.926Z,15.20
2019-01-11T03:15:54.181Z,15.80
2019-01-11T03:18:25.497Z,14.23
2019-01-11T03:20:57.980Z,13.90
2019-01-11T03:23:29.312Z,15.07
2019-01-11T03:26:00.508Z,14.83
2019-01-11T03:28:32.002Z,15.23
2019-01-11T03:31:11.285Z,14.43
2019-01-11T03:33:42.546Z,14.93
2019-01-11T03:36:13.811Z,14.97
2019-01-11T03:38:45.093Z,15.13
2019-01-11T03:41:16.346Z,14.77
2019-01-11T03:43:47.531Z,14.40
2019-01-11T03:46:18.809Z,14.57
2019-01-11T03:48:50.090Z,13.17
2019-01-11T03:51:21.484Z,14.27
2019-01-11T03:53:52.654Z,14.70
2019-01-11T03:56:23.881Z,13.77
2019-01-11T03:58:55.400Z,13.83
2019-01-11T04:01:26.638Z,13.07
2019-01-11T04:03:57.828Z,13.53
2019-01-11T04:06:29.116Z,13.80
2019-01-11T04:09:00.429Z,13.33
2019-01-11T04:11:32.938Z,12.87
2019-01-11T04:14:04.484Z,13.20
2019-01-11T04:16:35.725Z,13.33
2019-01-11T04:19:13.506Z,12.27
2019-01-11T04:22:04.108Z,11.77
2019-01-11T04:24:47.092Z,11.23
2019-01-11T04:27:18.392Z,12.97
2019-01-11T04:29:49.796Z,12.27
2019-01-11T04:32:21.142Z,11.43
2019-01-11T04:34:52.358Z,11.97
2019-01-11T04:37:23.582Z,10.93
2019-01-11T04:39:54.999Z,12.37
2019-01-11T04:42:26.324Z,10.73
2019-01-11T04:44:57.703Z,10.80
2019-01-11T04:47:28.947Z,10.10
2019-01-11T04:50:00.312Z,10.97
2019-01-11T04:52:32.051Z,10.23
2019-01-11T04:55:05.675Z,9.87
2019-01-11T04:57:38.492Z,10.43
2019-01-11T05:00:14.616Z,10.30
2019-01-11T05:02:47.471Z,10.50
2019-01-11T05:05:21.797Z,10.63
2019-01-11T05:07:53.161Z,11.13
2019-01-11T05:10:24.469Z,10.70
2019-01-11T05:12:56.647Z,9.93
2019-01-11T05:15:27.803Z,10.03
2019-01-11T05:17:59.039Z,11.17
2019-01-11T05:20:30.339Z,11.07
2019-01-11T05:23:01.548Z,10.90
2019-01-11T05:25:32.774Z,10.93
2019-01-11T05:28:03.996Z,10.50
2019-01-11T05:30:35.277Z,12.03
2019-01-11T05:33:06.513Z,11.13
2019-01-11T05:35:37.764Z,10.10
2019-01-11T05:38:09.009Z,10.80
2019-01-11T05:40:40.309Z,11.23
2019-01-11T05:43:11.651Z,11.03
2019-01-11T05:45:42.801Z,11.20
2019-01-11T05:48:14.154Z,11.67
2019-01-11T05:50:45.316Z,10.63
2019-01-11T05:53:16.796Z,11.43
2019-01-11T05:55:49.401Z,10.43
2019-01-11T05:58:37.852Z,12.90
2019-01-11T06:01:09.169Z,11.50
2019-01-11T06:03:40.400Z,11.37
2019-01-11T06:06:12.342Z,11.30
2019-01-11T06:08:43.565Z,11.37
2019-01-11T06:11:14.800Z,11.80
2019-01-11T06:13:46.005Z,12.23
2019-01-11T06:16:17.257Z,11.10
2019-01-11T06:18:48.532Z,12.13
2019-01-11T06:21:19.899Z,12.37
2019-01-11T06:23:51.265Z,10.53
2019-01-11T06:26:22.569Z,12.47
2019-01-11T06:28:53.765Z,12.00
2019-01-11T06:31:25.033Z,12.63
2019-01-11T06:33:56.197Z,13.27
2019-01-11T06:36:27.562Z,12.07
2019-01-11T06:38:58.830Z,11.43
2019-01-11T06:41:39.864Z,12.53
2019-01-11T06:44:11.126Z,12.57
2019-01-11T06:46:42.385Z,11.77
2019-01-11T06:49:13.678Z,13.17
2019-01-11T06:51:44.892Z,11.50
2019-01-11T06:54:16.191Z,12.00
2019-01-11T06:56:47.535Z,12.37
2019-01-11T06:59:18.761Z,13.23
2019-01-11T07:01:49.925Z,13.00
2019-01-11T07:04:21.175Z,11.43
2019-01-11T07:06:52.416Z,11.53
2019-01-11T07:09:23.631Z,12.47
2019-01-11T07:11:54.915Z,11.87
2019-01-11T07:14:26.283Z,12.50
2019-01-11T07:16:57.501Z,11.73
2019-01-11T07:19:28.773Z,12.73
2019-01-11T07:21:59.994Z,10.37
2019-01-11T07:24:31.335Z,13.37
2019-01-11T07:27:02.836Z,12.00
2019-01-11T07:29:34.158Z,12.33
2019-01-11T07:32:05.546Z,13.20
2019-01-11T07:34:36.855Z,14.00
2019-01-11T07:37:08.148Z,14.27
2019-01-11T07:39:39.484Z,13.07
2019-01-11T07:42:10.657Z,13.47
2019-01-11T07:44:41.972Z,13.27
2019-01-11T07:47:13.154Z,12.77
2019-01-11T07:49:45.477Z,11.37
2019-01-11T07:52:17.033Z,12.57
2019-01-11T07:54:48.214Z,15.17
2019-01-11T07:57:19.503Z,14.73
2019-01-11T07:59:50.713Z,13.63
2019-01-11T08:02:21.954Z,15.87
2019-01-11T08:04:53.162Z,14.03
2019-01-11T08:07:24.562Z,13.63
2019-01-11T08:09:55.873Z,13.77
2019-01-11T08:12:27.129Z,13.37
2019-01-11T08:14:58.345Z,13.43
2019-01-11T08:17:29.652Z,16.20
2019-01-11T08:20:00.965Z,14.60
2019-01-11T08:22:40.974Z,16.03
2019-01-11T08:25:13.107Z,13.77
2019-01-11T08:27:45.902Z,15.27
2019-01-11T08:30:17.097Z,15.60
2019-01-11T08:32:48.458Z,10.67
2019-01-11T08:35:19.656Z,14.77
2019-01-11T08:37:50.923Z,13.73
2019-01-11T08:40:22.283Z,15.63
2019-01-11T08:42:53.499Z,15.87
2019-01-11T08:45:24.745Z,14.07
2019-01-11T08:47:56.000Z,15.07
2019-01-11T08:50:27.347Z,15.73
2019-01-11T08:52:58.578Z,15.83
2019-01-11T08:55:31.564Z,17.07
2019-01-11T08:58:02.825Z,15.63
2019-01-11T09:00:34.084Z,14.33
2019-01-11T09:03:05.508Z,15.43
2019-01-11T09:05:36.720Z,16.37
2019-01-11T09:08:08.030Z,17.57
2019-01-11T09:10:39.234Z,17.07
2019-01-11T09:13:10.426Z,15.43
2019-01-11T09:15:41.713Z,18.47
2019-01-11T09:18:13.449Z,17.53
2019-01-11T09:20:44.790Z,17.37
2019-01-11T09:23:16.033Z,15.27
2019-01-11T09:25:47.323Z,17.90
2019-01-11T09:28:18.579Z,17.83
2019-01-11T09:30:51.229Z,15.73
2019-01-11T09:33:22.552Z,15.80
2019-01-11T09:35:53.871Z,18.70
2019-01-11T09:38:25.096Z,16.80
2019-01-11T09:40:56.302Z,16.90
2019-01-11T09:43:27.498Z,18.93
2019-01-11T09:45:58.954Z,17.10
2019-01-11T09:48:30.161Z,19.83
2019-01-11T09:51:01.403Z,17.53
2019-01-11T09:53:32.576Z,17.17
2019-01-11T09:56:03.968Z,19.43
2019-01-11T09:58:36.355Z,18.47
2019-01-11T10:01:07.754Z,17.63
2019-01-11T10:03:39.075Z,16.77
2019-01-11T10:06:10.312Z,14.67
2019-01-11T10:08:41.617Z,15.93
2019-01-11T10:11:13.606Z,15.77
2019-01-11T10:13:44.939Z,16.20
2019-01-11T10:16:16.175Z,15.37
2019-01-11T10:18:47.333Z,15.97
2019-01-11T10:21:22.287Z,15.37
2019-01-11T10:23:51.434Z,15.70
2019-01-11T10:26:22.646Z,14.97
2019-01-11T10:28:53.910Z,16.43
2019-01-11T10:31:26.222Z,17.80
2019-01-11T10:33:57.436Z,16.60
2019-01-11T10:36:29.011Z,15.77
2019-01-11T10:39:00.400Z,15.60
2019-01-11T10:41:33.113Z,15.43
2019-01-11T10:44:04.375Z,16.20
2019-01-11T10:46:37.845Z,15.67
2019-01-11T10:49:09.135Z,15.27
2019-01-11T10:51:40.373Z,14.77
2019-01-11T10:54:19.798Z,15.20
2019-01-11T10:56:51.073Z,16.40
2019-01-11T10:59:22.298Z,14.63
2019-01-11T11:01:53.512Z,15.33
2019-01-11T11:04:24.720Z,15.83
2019-01-11T11:06:56.070Z,17.10
2019-01-11T11:09:27.662Z,16.70
2019-01-11T11:11:58.863Z,17.20
2019-01-11T11:14:30.383Z,16.70
2019-01-11T11:17:01.583Z,16.27
2019-01-11T11:19:32.782Z,15.23
2019-01-11T11:22:04.032Z,15.67
2019-01-11T11:24:35.348Z,16.77
2019-01-11T11:27:06.583Z,13.83
2019-01-11T11:29:37.762Z,13.57
2019-01-11T11:32:08.914Z,13.97
2019-01-11T11:34:43.043Z,7.53
2019-01-11T11:37:17.785Z,12.90
2019-01-11T11:39:49.246Z,13.00
2019-01-11T11:42:20.506Z,13.73
2019-01-11T11:44:51.656Z,13.27
2019-01-11T11:47:23.113Z,11.27
2019-01-11T11:49:54.623Z,12.17
2019-01-11T11:52:25.920Z,14.50
2019-01-11T11:54:57.125Z,12.83
2019-01-11T11:57:28.353Z,13.97
2019-01-11T11:59:59.575Z,12.80
2019-01-11T12:02:30.881Z,14.17
2019-01-11T12:05:02.103Z,14.50
2019-01-11T12:07:33.343Z,12.50
2019-01-11T12:10:05.336Z,12.90
2019-01-11T12:12:36.711Z,11.47
2019-01-11T12:15:08.336Z,12.50
2019-01-11T12:17:39.658Z,12.40
2019-01-11T12:20:15.189Z,9.70
2019-01-11T12:22:46.380Z,11.33
2019-01-11T12:25:17.656Z,10.80
2019-01-11T12:27:49.710Z,9.27
2019-01-11T12:30:21.016Z,10.40
2019-01-11T12:32:52.539Z,9.30
2019-01-11T12:35:23.748Z,11.10
2019-01-11T12:37:55.039Z,10.87
2019-01-11T12:40:26.228Z,10.00
2019-01-11T12:42:57.736Z,9.37
2019-01-11T12:45:28.984Z,11.17
2019-01-11T12:48:00.202Z,10.70
2019-01-11T12:50:31.331Z,10.33
2019-01-11T12:53:02.648Z,11.03
2019-01-11T12:55:33.792Z,11.43
2019-01-11T12:58:04.963Z,9.40
2019-01-11T13:00:36.328Z,11.10
2019-01-11T13:03:07.518Z,11.50
2019-01-11T13:05:38.741Z,10.30
2019-01-11T13:08:10.113Z,10.77
2019-01-11T13:10:44.726Z,9.07
2019-01-11T13:13:15.992Z,10.77
2019-01-11T13:15:47.284Z,9.40
2019-01-11T13:18:18.563Z,10.10
2019-01-11T13:20:51.298Z,9.80
2019-01-11T13:23:24.084Z,8.23
2019-01-11T13:25:55.235Z,8.97
2019-01-11T13:28:26.571Z,8.13
2019-01-11T13:30:57.896Z,8.27
2019-01-11T13:33:29.443Z,8.00
2019-01-11T13:36:00.742Z,7.37
2019-01-11T13:38:33.726Z,6.63
2019-01-11T13:41:05.214Z,7.40
2019-01-11T13:43:36.499Z,7.10
2019-01-11T13:46:07.808Z,7.60
2019-01-11T13:48:39.052Z,6.77
2019-01-11T13:51:10.354Z,7.27
2019-01-11T13:53:41.582Z,7.13
2019-01-11T13:56:12.840Z,7.50
2019-01-11T13:58:44.140Z,7.67
2019-01-11T14:01:15.343Z,7.40
2019-01-11T14:03:46.509Z,8.17
2019-01-11T14:06:17.749Z,8.33
2019-01-11T14:08:48.984Z,8.27
2019-01-11T14:11:21.306Z,8.83
2019-01-11T14:13:52.503Z,8.33
2019-01-11T14:16:23.648Z,8.97
2019-01-11T14:18:54.966Z,8.07
2019-01-11T14:21:26.161Z,6.73
2019-01-11T14:23:57.337Z,8.13
2019-01-11T14:26:28.572Z,8.27
2019-01-11T14:28:59.845Z,8.30
2019-01-11T14:31:31.143Z,8.77
2019-01-11T14:34:02.389Z,9.50
2019-01-11T14:36:33.601Z,8.70
2019-01-11T14:39:08.227Z,9.43
2019-01-11T14:41:39.584Z,9.77
2019-01-11T14:44:12.002Z,8.70
2019-01-11T14:46:43.310Z,9.37
2019-01-11T14:49:14.537Z,8.20
2019-01-11T14:51:46.091Z,8.50
2019-01-11T14:54:17.310Z,7.80
2019-01-11T14:56:48.516Z,9.33
2019-01-11T14:59:19.732Z,8.73
2019-01-11T15:01:51.260Z,9.43
2019-01-11T15:04:22.671Z,8.60
2019-01-11T15:06:54.267Z,8.27
2019-01-11T15:09:25.579Z,9.53
2019-01-11T15:11:56.788Z,8.87
2019-01-11T15:14:28.014Z,5.57
2019-01-11T15:16:59.232Z,8.87
2019-01-11T15:19:30.482Z,8.00
2019-01-11T15:22:01.729Z,9.30
2019-01-11T15:24:33.196Z,9.27
2019-01-11T15:27:04.602Z,9.30
2019-01-11T15:29:36.104Z,9.23
2019-01-11T15:32:07.280Z,10.37
2019-01-11T15:34:38.514Z,8.97
2019-01-11T15:37:09.739Z,9.23
2019-01-11T15:39:40.959Z,8.63
2019-01-11T15:42:12.152Z,8.77
2019-01-11T15:44:43.404Z,8.33
2019-01-11T15:47:14.699Z,9.53
2019-01-11T15:49:45.938Z,9.87
2019-01-11T15:52:17.175Z,9.13
2019-01-11T15:54:48.430Z,9.33
2019-01-11T15:57:25.188Z,8.37
2019-01-11T16:00:01.315Z,9.03
2019-01-11T16:02:33.536Z,8.50
2019-01-11T16:05:04.988Z,7.97
2019-01-11T16:07:36.266Z,8.00
2019-01-11T16:10:12.254Z,8.03
2019-01-11T16:13:22.131Z,8.73
2019-01-11T16:16:23.955Z,7.63
2019-01-11T16:18:56.872Z,8.03
2019-01-11T16:21:28.149Z,7.67
2019-01-11T16:23:59.330Z,7.60
2019-01-11T16:26:30.728Z,7.33
2019-01-11T16:29:02.024Z,6.30
2019-01-11T16:31:33.265Z,5.17
2019-01-11T16:34:04.405Z,5.70
2019-01-11T16:36:35.868Z,5.57
2019-01-11T16:39:09.114Z,5.43
2019-01-11T16:41:40.376Z,5.47
2019-01-11T16:44:11.609Z,5.30
2019-01-11T16:46:42.824Z,5.43
2019-01-11T16:49:14.077Z,4.97
2019-01-11T16:51:45.306Z,4.83
2019-01-11T16:54:16.667Z,5.23
2019-01-11T16:56:47.983Z,4.80
2019-01-11T16:59:19.235Z,4.40
2019-01-11T17:01:50.545Z,4.20
2019-01-11T17:04:21.857Z,4.87
2019-01-11T17:06:53.121Z,4.37
2019-01-11T17:09:24.333Z,3.40
2019-01-11T17:11:55.600Z,4.10
2019-01-11T17:14:26.882Z,4.13
2019-01-11T17:16:58.214Z,3.50
2019-01-11T17:19:29.662Z,3.40
2019-01-11T17:22:00.817Z,3.80
2019-01-11T17:24:32.094Z,4.20
2019-01-11T17:27:03.353Z,3.60
2019-01-11T17:29:34.531Z,3.27
2019-01-11T17:32:05.890Z,3.70
2019-01-11T17:34:37.158Z,3.60
2019-01-11T17:37:08.330Z,3.27
2019-01-11T17:39:39.674Z,3.83
2019-01-11T17:42:10.990Z,3.43
2019-01-11T17:44:42.294Z,3.70
2019-01-11T17:47:13.475Z,3.30
2019-01-11T17:49:44.761Z,3.90
2019-01-11T17:52:15.942Z,3.50
2019-01-11T17:54:47.192Z,3.63
2019-01-11T17:57:18.419Z,3.63
2019-01-11T17:59:50.670Z,3.50
2019-01-11T18:02:21.967Z,3.87
2019-01-11T18:04:53.130Z,3.30
2019-01-11T18:07:24.417Z,3.73
2019-01-11T18:09:55.969Z,4.20
2019-01-11T18:12:27.125Z,4.07
2019-01-11T18:14:58.548Z,3.90
2019-01-11T18:17:30.143Z,3.00
2019-01-11T18:20:01.446Z,7.57
2019-01-11T18:22:33.871Z,3.90
2019-01-11T18:25:05.807Z,3.60
2019-01-11T18:27:37.060Z,3.73
2019-01-11T18:30:10.393Z,4.20
2019-01-11T18:32:41.814Z,4.17
2019-01-11T18:35:13.336Z,3.93
2019-01-11T18:37:44.789Z,3.67
2019-01-11T18:40:18.760Z,4.03
2019-01-11T18:42:50.190Z,4.23
2019-01-11T18:45:28.384Z,3.53
2019-01-11T18:47:54.392Z,3.60
2019-01-11T18:50:25.703Z,4.73
2019-01-11T18:52:56.887Z,4.23
2019-01-11T18:55:28.138Z,4.13
2019-01-11T18:57:59.379Z,3.97
2019-01-11T19:00:30.860Z,3.93
2019-01-11T19:03:02.058Z,4.30
2019-01-11T19:05:33.499Z,4.23
2019-01-11T19:08:05.037Z,3.53
2019-01-11T19:10:36.255Z,4.40
2019-01-11T19:13:07.457Z,3.80
2019-01-11T19:15:38.736Z,10.23
2019-01-11T19:18:10.013Z,5.47
2019-01-11T19:20:41.175Z,3.87
2019-01-11T19:23:12.523Z,4.30
2019-01-11T19:25:43.777Z,4.13
2019-01-11T19:28:15.099Z,4.43
2019-01-11T19:30:47.483Z,4.87
2019-01-11T19:33:18.745Z,4.00
2019-01-11T19:35:50.042Z,3.67
2019-01-11T19:38:22.327Z,4.53
2019-01-11T19:40:53.907Z,4.10
2019-01-11T19:43:25.742Z,3.87
2019-01-11T19:45:57.123Z,4.83
2019-01-11T19:48:28.519Z,4.33
2019-01-11T19:50:59.853Z,4.60
2019-01-11T19:53:31.306Z,4.00
2019-01-11T19:56:02.734Z,4.70
2019-01-11T19:58:34.072Z,4.37
2019-01-11T20:01:05.694Z,4.33
2019-01-11T20:03:36.945Z,5.53
2019-01-11T20:06:08.423Z,4.53
2019-01-11T20:08:39.982Z,4.90
2019-01-11T20:11:11.483Z,4.20
2019-01-11T20:13:42.861Z,4.43
2019-01-11T20:16:14.429Z,4.20
2019-01-11T20:18:45.914Z,3.93
2019-01-11T20:21:17.360Z,5.30
2019-01-11T20:23:52.746Z,4.63
2019-01-11T20:26:24.100Z,4.50
2019-01-11T20:28:55.447Z,5.10
2019-01-11T20:31:26.793Z,5.43
2019-01-11T20:33:58.275Z,5.50
2019-01-11T20:36:32.206Z,5.40
2019-01-11T20:39:04.665Z,4.37
2019-01-11T20:41:36.465Z,4.87
2019-01-11T20:44:08.538Z,4.50
2019-01-11T20:46:40.488Z,5.27
2019-01-11T20:49:13.246Z,4.10
2019-01-11T20:51:44.577Z,4.87
2019-01-11T20:54:16.095Z,5.03
2019-01-11T20:56:47.382Z,5.00
2019-01-11T20:59:18.777Z,4.73
2019-01-11T21:01:50.177Z,4.60
2019-01-11T21:04:21.626Z,4.90
2019-01-11T21:06:53.048Z,5.40
2019-01-11T21:09:24.361Z,4.77
2019-01-11T21:11:55.748Z,5.07
2019-01-11T21:14:27.197Z,5.13
2019-01-11T21:16:58.521Z,4.40
2019-01-11T21:19:30.094Z,4.87
2019-01-11T21:22:01.448Z,4.87
2019-01-11T21:24:32.974Z,5.93
2019-01-11T21:27:04.208Z,5.27
2019-01-11T21:29:35.435Z,4.73
2019-01-11T21:32:06.749Z,5.10
2019-01-11T21:34:37.935Z,5.43
2019-01-11T21:37:09.238Z,4.73
2019-01-11T21:39:40.538Z,6.00
2019-01-11T21:42:11.785Z,5.30
2019-01-11T21:44:42.966Z,5.30
2019-01-11T21:47:15.203Z,4.90
2019-01-11T21:49:46.485Z,5.23
2019-01-11T21:52:17.681Z,5.50
2019-01-11T21:54:49.358Z,5.07
2019-01-11T21:57:20.572Z,4.40
2019-01-11T21:59:51.800Z,5.13
2019-01-11T22:02:23.074Z,5.00
2019-01-11T22:04:54.282Z,5.17
2019-01-11T22:07:25.469Z,5.77
2019-01-11T22:09:56.734Z,5.33
2019-01-11T22:12:28.049Z,5.70
2019-01-11T22:15:00.482Z,5.87
2019-01-11T22:17:31.840Z,4.70
2019-01-11T22:20:03.119Z,5.07
2019-01-11T22:22:34.453Z,5.30
2019-01-11T22:25:07.171Z,5.23
2019-01-11T22:27:38.531Z,4.70
2019-01-11T22:30:18.096Z,5.27
2019-01-11T22:32:49.392Z,4.93
2019-01-11T22:35:20.893Z,5.13
2019-01-11T22:37:52.034Z,4.57
2019-01-11T22:40:24.072Z,5.77
2019-01-11T22:42:59.536Z,5.13
2019-01-11T22:45:30.735Z,5.60
2019-01-11T22:48:02.075Z,6.10
2019-01-11T22:50:33.339Z,5.40
2019-01-11T22:53:04.595Z,6.70
2019-01-11T22:55:35.855Z,4.97
2019-01-11T22:58:07.136Z,6.13
2019-01-11T23:01:16.323Z,5.63
2019-01-11T23:03:50.587Z,5.30
2019-01-11T23:07:04.964Z,5.03
2019-01-11T23:10:04.016Z,5.80
2019-01-11T23:13:00.938Z,5.97
2019-01-11T23:15:38.122Z,5.47
2019-01-11T23:18:29.415Z,6.20
2019-01-11T23:21:04.212Z,5.37
2019-01-11T23:23:35.527Z,6.23
2019-01-11T23:26:06.706Z,5.97
2019-01-11T23:28:37.901Z,4.77
2019-01-11T23:31:09.210Z,5.23
2019-01-11T23:33:40.320Z,5.47
2019-01-11T23:36:11.500Z,5.93
2019-01-11T23:38:42.687Z,5.47
2019-01-11T23:41:14.043Z,5.80
2019-01-11T23:43:45.229Z,5.37
2019-01-11T23:46:16.451Z,5.97
2019-01-11T23:48:47.733Z,6.10
2019-01-11T23:51:19.032Z,5.33
2019-01-11T23:53:50.798Z,6.47
2019-01-11T23:56:22.194Z,5.40
2019-01-11T23:58:53.546Z,5.53
